sensor_id;sensor_type;location;lat;lon;timestamp;P1;durP1;ratioP1;P2;durP2;ratioP2
43678;SDS011;29279;50.858;4.392;2022-12-07T00:01:21;23.08;;;13.52;;
43678;SDS011;29279;50.858;4.392;2022-12-07T00:03:49;24.35;;;14.20;;
43678;SDS011;29279;50.858;4.392;2022-12-07T00:06:16;23.95;;;13.77;;
43678;SDS011;29279;50.858;4.392;2022-12-07T00:08:43;29.23;;;14.95;;
43678;SDS011;29279;50.858;4.392;2022-12-07T00:11:13;21.60;;;14.25;;
43678;SDS011;29279;50.858;4.392;2022-12-07T00:13:40;30.02;;;15.23;;
43678;SDS011;29279;50.858;4.392;2022-12-07T00:16:07;26.60;;;15.05;;
43678;SDS011;29279;50.858;4.392;2022-12-07T00:18:35;28.42;;;15.32;;
43678;SDS011;29279;50.858;4.392;2022-12-07T00:21:06;24.60;;;15.30;;
43678;SDS011;29279;50.858;4.392;2022-12-07T00:23:36;28.65;;;15.98;;
43678;SDS011;29279;50.858;4.392;2022-12-07T00:26:06;30.67;;;17.40;;
43678;SDS011;29279;50.858;4.392;2022-12-07T00:28:37;26.58;;;15.45;;
43678;SDS011;29279;50.858;4.392;2022-12-07T00:31:07;28.08;;;15.82;;
43678;SDS011;29279;50.858;4.392;2022-12-07T00:33:37;26.50;;;15.32;;
43678;SDS011;29279;50.858;4.392;2022-12-07T00:36:05;23.48;;;15.60;;
43678;SDS011;29279;50.858;4.392;2022-12-07T00:38:33;25.98;;;16.30;;
43678;SDS011;29279;50.858;4.392;2022-12-07T00:41:01;29.90;;;14.77;;
43678;SDS011;29279;50.858;4.392;2022-12-07T00:43:31;27.40;;;15.20;;
43678;SDS011;29279;50.858;4.392;2022-12-07T00:45:57;30.15;;;15.50;;
43678;SDS011;29279;50.858;4.392;2022-12-07T00:48:23;30.10;;;16.38;;
43678;SDS011;29279;50.858;4.392;2022-12-07T00:50:50;29.90;;;17.08;;
43678;SDS011;29279;50.858;4.392;2022-12-07T00:53:16;26.67;;;16.92;;
43678;SDS011;29279;50.858;4.392;2022-12-07T00:55:42;29.80;;;18.42;;
43678;SDS011;29279;50.858;4.392;2022-12-07T00:58:08;37.00;;;18.17;;
43678;SDS011;29279;50.858;4.392;2022-12-07T01:00:35;28.60;;;18.30;;
43678;SDS011;29279;50.858;4.392;2022-12-07T01:03:03;30.08;;;17.60;;
43678;SDS011;29279;50.858;4.392;2022-12-07T01:05:29;31.10;;;18.60;;
43678;SDS011;29279;50.858;4.392;2022-12-07T01:07:54;32.03;;;18.67;;
43678;SDS011;29279;50.858;4.392;2022-12-07T01:10:20;28.08;;;17.92;;
43678;SDS011;29279;50.858;4.392;2022-12-07T01:12:47;30.55;;;19.35;;
43678;SDS011;29279;50.858;4.392;2022-12-07T01:15:12;32.05;;;19.58;;
43678;SDS011;29279;50.858;4.392;2022-12-07T01:17:38;31.02;;;20.08;;
43678;SDS011;29279;50.858;4.392;2022-12-07T01:20:04;31.52;;;19.38;;
43678;SDS011;29279;50.858;4.392;2022-12-07T01:22:30;33.42;;;18.63;;
43678;SDS011;29279;50.858;4.392;2022-12-07T01:24:56;35.95;;;19.13;;
43678;SDS011;29279;50.858;4.392;2022-12-07T01:27:22;29.38;;;18.30;;
43678;SDS011;29279;50.858;4.392;2022-12-07T01:29:47;31.05;;;18.55;;
43678;SDS011;29279;50.858;4.392;2022-12-07T01:32:13;32.28;;;18.52;;
43678;SDS011;29279;50.858;4.392;2022-12-07T01:34:38;27.85;;;18.77;;
43678;SDS011;29279;50.858;4.392;2022-12-07T01:37:04;33.92;;;18.88;;
43678;SDS011;29279;50.858;4.392;2022-12-07T01:39:30;28.30;;;18.30;;
43678;SDS011;29279;50.858;4.392;2022-12-07T01:41:55;36.05;;;18.33;;
43678;SDS011;29279;50.858;4.392;2022-12-07T01:44:22;25.67;;;16.98;;
43678;SDS011;29279;50.858;4.392;2022-12-07T01:49:39;30.00;;;17.52;;
43678;SDS011;29279;50.858;4.392;2022-12-07T01:52:11;33.53;;;16.70;;
43678;SDS011;29279;50.858;4.392;2022-12-07T01:54:38;29.10;;;16.65;;
43678;SDS011;29279;50.858;4.392;2022-12-07T01:57:04;27.20;;;16.50;;
43678;SDS011;29279;50.858;4.392;2022-12-07T01:59:33;31.65;;;16.48;;
43678;SDS011;29279;50.858;4.392;2022-12-07T02:01:59;30.48;;;16.30;;
43678;SDS011;29279;50.858;4.392;2022-12-07T02:04:28;22.70;;;15.13;;
43678;SDS011;29279;50.858;4.392;2022-12-07T02:06:55;29.13;;;16.25;;
43678;SDS011;29279;50.858;4.392;2022-12-07T02:09:21;30.35;;;16.20;;
43678;SDS011;29279;50.858;4.392;2022-12-07T02:11:47;30.15;;;16.30;;
43678;SDS011;29279;50.858;4.392;2022-12-07T02:14:13;27.95;;;15.70;;
43678;SDS011;29279;50.858;4.392;2022-12-07T02:32:54;29.17;;;15.98;;
43678;SDS011;29279;50.858;4.392;2022-12-07T02:35:24;28.00;;;15.30;;
43678;SDS011;29279;50.858;4.392;2022-12-07T02:40:50;25.05;;;15.70;;
43678;SDS011;29279;50.858;4.392;2022-12-07T02:43:20;25.70;;;15.13;;
43678;SDS011;29279;50.858;4.392;2022-12-07T02:45:56;21.48;;;14.00;;
43678;SDS011;29279;50.858;4.392;2022-12-07T02:48:26;24.63;;;14.68;;
43678;SDS011;29279;50.858;4.392;2022-12-07T02:50:53;28.30;;;13.88;;
43678;SDS011;29279;50.858;4.392;2022-12-07T02:55:57;25.73;;;13.95;;
43678;SDS011;29279;50.858;4.392;2022-12-07T03:01:11;30.13;;;13.32;;
43678;SDS011;29279;50.858;4.392;2022-12-07T03:06:52;22.05;;;13.40;;
43678;SDS011;29279;50.858;4.392;2022-12-07T03:09:27;28.17;;;14.77;;
43678;SDS011;29279;50.858;4.392;2022-12-07T03:12:01;26.05;;;13.68;;
43678;SDS011;29279;50.858;4.392;2022-12-07T03:14:44;30.35;;;15.48;;
43678;SDS011;29279;50.858;4.392;2022-12-07T03:17:19;25.27;;;15.10;;
43678;SDS011;29279;50.858;4.392;2022-12-07T03:19:51;34.88;;;13.27;;
43678;SDS011;29279;50.858;4.392;2022-12-07T03:22:19;31.35;;;13.77;;
43678;SDS011;29279;50.858;4.392;2022-12-07T03:24:50;25.45;;;14.30;;
43678;SDS011;29279;50.858;4.392;2022-12-07T03:27:21;29.65;;;15.23;;
43678;SDS011;29279;50.858;4.392;2022-12-07T03:32:41;26.77;;;13.60;;
43678;SDS011;29279;50.858;4.392;2022-12-07T03:35:15;24.98;;;14.52;;
43678;SDS011;29279;50.858;4.392;2022-12-07T03:37:59;21.83;;;13.57;;
43678;SDS011;29279;50.858;4.392;2022-12-07T03:40:35;26.15;;;13.90;;
43678;SDS011;29279;50.858;4.392;2022-12-07T03:43:05;24.45;;;12.35;;
43678;SDS011;29279;50.858;4.392;2022-12-07T03:45:39;21.48;;;14.15;;
43678;SDS011;29279;50.858;4.392;2022-12-07T03:48:25;20.95;;;12.35;;
43678;SDS011;29279;50.858;4.392;2022-12-07T03:54:24;24.02;;;13.00;;
43678;SDS011;29279;50.858;4.392;2022-12-07T03:56:58;26.08;;;13.65;;
43678;SDS011;29279;50.858;4.392;2022-12-07T03:59:26;22.70;;;12.35;;
43678;SDS011;29279;50.858;4.392;2022-12-07T04:01:54;21.75;;;11.73;;
43678;SDS011;29279;50.858;4.392;2022-12-07T04:04:22;24.65;;;12.00;;
43678;SDS011;29279;50.858;4.392;2022-12-07T04:06:49;23.23;;;13.07;;
43678;SDS011;29279;50.858;4.392;2022-12-07T04:09:15;25.70;;;13.00;;
43678;SDS011;29279;50.858;4.392;2022-12-07T04:11:42;24.65;;;12.75;;
43678;SDS011;29279;50.858;4.392;2022-12-07T04:14:07;24.88;;;12.77;;
43678;SDS011;29279;50.858;4.392;2022-12-07T04:19:12;24.20;;;13.07;;
43678;SDS011;29279;50.858;4.392;2022-12-07T04:21:38;21.42;;;12.05;;
43678;SDS011;29279;50.858;4.392;2022-12-07T04:24:04;25.50;;;13.00;;
43678;SDS011;29279;50.858;4.392;2022-12-07T04:26:30;23.52;;;12.40;;
43678;SDS011;29279;50.858;4.392;2022-12-07T04:28:56;22.27;;;12.55;;
43678;SDS011;29279;50.858;4.392;2022-12-07T04:31:21;23.05;;;13.45;;
43678;SDS011;29279;50.858;4.392;2022-12-07T04:33:47;21.58;;;12.52;;
43678;SDS011;29279;50.858;4.392;2022-12-07T04:36:13;26.35;;;13.75;;
43678;SDS011;29279;50.858;4.392;2022-12-07T04:38:39;25.45;;;15.38;;
43678;SDS011;29279;50.858;4.392;2022-12-07T04:41:08;25.60;;;16.08;;
43678;SDS011;29279;50.858;4.392;2022-12-07T04:43:34;24.35;;;15.70;;
43678;SDS011;29279;50.858;4.392;2022-12-07T04:46:01;34.55;;;17.60;;
43678;SDS011;29279;50.858;4.392;2022-12-07T04:48:27;30.42;;;16.80;;
43678;SDS011;29279;50.858;4.392;2022-12-07T04:50:53;29.75;;;16.48;;
43678;SDS011;29279;50.858;4.392;2022-12-07T04:53:18;29.27;;;19.05;;
43678;SDS011;29279;50.858;4.392;2022-12-07T04:55:44;31.63;;;18.40;;
43678;SDS011;29279;50.858;4.392;2022-12-07T04:58:11;28.33;;;17.55;;
43678;SDS011;29279;50.858;4.392;2022-12-07T05:00:37;30.90;;;17.52;;
43678;SDS011;29279;50.858;4.392;2022-12-07T05:03:03;28.33;;;15.70;;
43678;SDS011;29279;50.858;4.392;2022-12-07T05:05:29;32.53;;;15.63;;
43678;SDS011;29279;50.858;4.392;2022-12-07T05:07:55;30.23;;;15.95;;
43678;SDS011;29279;50.858;4.392;2022-12-07T05:10:20;30.73;;;15.77;;
43678;SDS011;29279;50.858;4.392;2022-12-07T05:12:46;28.42;;;15.48;;
43678;SDS011;29279;50.858;4.392;2022-12-07T05:15:12;22.92;;;14.85;;
43678;SDS011;29279;50.858;4.392;2022-12-07T05:17:38;33.40;;;15.60;;
43678;SDS011;29279;50.858;4.392;2022-12-07T05:20:04;27.50;;;15.05;;
43678;SDS011;29279;50.858;4.392;2022-12-07T05:22:31;31.17;;;15.93;;
43678;SDS011;29279;50.858;4.392;2022-12-07T05:24:56;31.48;;;14.70;;
43678;SDS011;29279;50.858;4.392;2022-12-07T05:27:22;28.40;;;14.95;;
43678;SDS011;29279;50.858;4.392;2022-12-07T05:29:49;27.42;;;14.50;;
43678;SDS011;29279;50.858;4.392;2022-12-07T05:32:15;26.73;;;14.35;;
43678;SDS011;29279;50.858;4.392;2022-12-07T05:34:41;20.45;;;13.18;;
43678;SDS011;29279;50.858;4.392;2022-12-07T05:37:07;22.33;;;14.13;;
43678;SDS011;29279;50.858;4.392;2022-12-07T05:39:32;29.27;;;15.18;;
43678;SDS011;29279;50.858;4.392;2022-12-07T05:41:58;26.17;;;13.02;;
43678;SDS011;29279;50.858;4.392;2022-12-07T05:44:43;25.08;;;13.00;;
43678;SDS011;29279;50.858;4.392;2022-12-07T05:47:10;28.17;;;13.82;;
43678;SDS011;29279;50.858;4.392;2022-12-07T05:49:36;20.73;;;12.20;;
43678;SDS011;29279;50.858;4.392;2022-12-07T05:52:02;23.90;;;12.90;;
43678;SDS011;29279;50.858;4.392;2022-12-07T05:54:29;19.98;;;12.40;;
43678;SDS011;29279;50.858;4.392;2022-12-07T05:56:55;26.80;;;12.95;;
43678;SDS011;29279;50.858;4.392;2022-12-07T05:59:21;22.77;;;12.77;;
43678;SDS011;29279;50.858;4.392;2022-12-07T06:04:16;20.77;;;12.73;;
43678;SDS011;29279;50.858;4.392;2022-12-07T06:06:42;18.42;;;12.45;;
43678;SDS011;29279;50.858;4.392;2022-12-07T06:09:08;22.73;;;13.55;;
43678;SDS011;29279;50.858;4.392;2022-12-07T06:11:34;23.10;;;13.05;;
43678;SDS011;29279;50.858;4.392;2022-12-07T06:14:18;20.30;;;11.75;;
43678;SDS011;29279;50.858;4.392;2022-12-07T06:16:44;18.73;;;11.75;;
43678;SDS011;29279;50.858;4.392;2022-12-07T06:19:10;19.83;;;11.60;;
43678;SDS011;29279;50.858;4.392;2022-12-07T06:21:36;22.88;;;11.02;;
43678;SDS011;29279;50.858;4.392;2022-12-07T06:24:02;23.77;;;10.98;;
43678;SDS011;29279;50.858;4.392;2022-12-07T06:26:27;24.77;;;11.50;;
43678;SDS011;29279;50.858;4.392;2022-12-07T06:28:53;26.65;;;10.95;;
43678;SDS011;29279;50.858;4.392;2022-12-07T06:31:19;24.77;;;11.43;;
43678;SDS011;29279;50.858;4.392;2022-12-07T06:33:44;25.60;;;10.82;;
43678;SDS011;29279;50.858;4.392;2022-12-07T06:36:10;21.55;;;10.45;;
43678;SDS011;29279;50.858;4.392;2022-12-07T06:38:36;20.73;;;11.75;;
43678;SDS011;29279;50.858;4.392;2022-12-07T06:41:02;22.40;;;11.48;;
43678;SDS011;29279;50.858;4.392;2022-12-07T06:43:28;30.63;;;12.00;;
43678;SDS011;29279;50.858;4.392;2022-12-07T06:45:54;23.05;;;11.93;;
43678;SDS011;29279;50.858;4.392;2022-12-07T06:48:19;22.58;;;11.13;;
43678;SDS011;29279;50.858;4.392;2022-12-07T06:50:45;25.55;;;11.93;;
43678;SDS011;29279;50.858;4.392;2022-12-07T06:53:11;22.25;;;10.77;;
43678;SDS011;29279;50.858;4.392;2022-12-07T06:55:37;20.05;;;10.35;;
43678;SDS011;29279;50.858;4.392;2022-12-07T06:58:03;20.25;;;9.38;;
43678;SDS011;29279;50.858;4.392;2022-12-07T07:00:29;21.00;;;9.75;;
43678;SDS011;29279;50.858;4.392;2022-12-07T07:02:54;21.48;;;9.73;;
43678;SDS011;29279;50.858;4.392;2022-12-07T07:05:20;17.73;;;10.20;;
43678;SDS011;29279;50.858;4.392;2022-12-07T07:07:48;21.13;;;9.95;;
43678;SDS011;29279;50.858;4.392;2022-12-07T07:10:15;23.92;;;10.27;;
43678;SDS011;29279;50.858;4.392;2022-12-07T07:12:41;19.55;;;9.82;;
43678;SDS011;29279;50.858;4.392;2022-12-07T07:15:07;22.15;;;10.73;;
43678;SDS011;29279;50.858;4.392;2022-12-07T07:17:32;26.75;;;10.05;;
43678;SDS011;29279;50.858;4.392;2022-12-07T07:19:58;25.17;;;11.48;;
43678;SDS011;29279;50.858;4.392;2022-12-07T07:22:24;23.80;;;11.18;;
43678;SDS011;29279;50.858;4.392;2022-12-07T07:24:49;25.55;;;10.70;;
43678;SDS011;29279;50.858;4.392;2022-12-07T07:27:15;38.08;;;16.08;;
43678;SDS011;29279;50.858;4.392;2022-12-07T07:29:41;35.58;;;12.50;;
43678;SDS011;29279;50.858;4.392;2022-12-07T07:32:06;20.23;;;10.65;;
43678;SDS011;29279;50.858;4.392;2022-12-07T07:34:32;18.85;;;11.00;;
43678;SDS011;29279;50.858;4.392;2022-12-07T07:36:58;22.73;;;11.48;;
43678;SDS011;29279;50.858;4.392;2022-12-07T07:39:24;25.23;;;11.82;;
43678;SDS011;29279;50.858;4.392;2022-12-07T07:41:50;22.13;;;11.20;;
43678;SDS011;29279;50.858;4.392;2022-12-07T07:44:15;28.77;;;10.50;;
43678;SDS011;29279;50.858;4.392;2022-12-07T07:46:41;23.95;;;10.77;;
43678;SDS011;29279;50.858;4.392;2022-12-07T07:49:08;26.65;;;10.30;;
43678;SDS011;29279;50.858;4.392;2022-12-07T07:51:35;21.00;;;11.38;;
43678;SDS011;29279;50.858;4.392;2022-12-07T07:54:01;20.40;;;10.00;;
43678;SDS011;29279;50.858;4.392;2022-12-07T07:56:27;17.67;;;10.18;;
43678;SDS011;29279;50.858;4.392;2022-12-07T07:58:52;22.67;;;11.35;;
43678;SDS011;29279;50.858;4.392;2022-12-07T08:01:18;18.60;;;10.07;;
43678;SDS011;29279;50.858;4.392;2022-12-07T08:03:45;21.17;;;10.07;;
43678;SDS011;29279;50.858;4.392;2022-12-07T08:06:11;18.70;;;9.57;;
43678;SDS011;29279;50.858;4.392;2022-12-07T08:08:37;19.40;;;10.10;;
43678;SDS011;29279;50.858;4.392;2022-12-07T08:11:06;16.88;;;9.65;;
43678;SDS011;29279;50.858;4.392;2022-12-07T08:13:33;19.92;;;10.20;;
43678;SDS011;29279;50.858;4.392;2022-12-07T08:16:03;23.15;;;10.55;;
43678;SDS011;29279;50.858;4.392;2022-12-07T08:18:30;24.77;;;11.18;;
43678;SDS011;29279;50.858;4.392;2022-12-07T08:20:59;21.45;;;10.63;;
43678;SDS011;29279;50.858;4.392;2022-12-07T08:23:28;22.80;;;9.85;;
43678;SDS011;29279;50.858;4.392;2022-12-07T08:25:54;18.08;;;8.40;;
43678;SDS011;29279;50.858;4.392;2022-12-07T08:28:24;18.52;;;8.05;;
43678;SDS011;29279;50.858;4.392;2022-12-07T08:30:50;21.45;;;8.20;;
43678;SDS011;29279;50.858;4.392;2022-12-07T08:33:16;16.92;;;8.35;;
43678;SDS011;29279;50.858;4.392;2022-12-07T08:35:42;14.95;;;6.80;;
43678;SDS011;29279;50.858;4.392;2022-12-07T08:38:08;19.92;;;7.70;;
43678;SDS011;29279;50.858;4.392;2022-12-07T08:40:33;15.23;;;7.40;;
43678;SDS011;29279;50.858;4.392;2022-12-07T08:43:00;23.40;;;7.93;;
43678;SDS011;29279;50.858;4.392;2022-12-07T08:45:25;14.75;;;7.53;;
43678;SDS011;29279;50.858;4.392;2022-12-07T08:47:57;19.35;;;8.07;;
43678;SDS011;29279;50.858;4.392;2022-12-07T08:50:28;18.50;;;7.45;;
43678;SDS011;29279;50.858;4.392;2022-12-07T08:52:56;21.25;;;8.75;;
43678;SDS011;29279;50.858;4.392;2022-12-07T08:55:23;18.88;;;7.53;;
43678;SDS011;29279;50.858;4.392;2022-12-07T08:57:50;18.85;;;8.43;;
43678;SDS011;29279;50.858;4.392;2022-12-07T09:00:16;14.45;;;6.95;;
43678;SDS011;29279;50.858;4.392;2022-12-07T09:02:43;14.10;;;6.70;;
43678;SDS011;29279;50.858;4.392;2022-12-07T09:05:09;16.55;;;6.45;;
43678;SDS011;29279;50.858;4.392;2022-12-07T09:07:35;18.48;;;7.82;;
43678;SDS011;29279;50.858;4.392;2022-12-07T09:10:02;22.58;;;7.10;;
43678;SDS011;29279;50.858;4.392;2022-12-07T09:12:29;22.50;;;7.60;;
43678;SDS011;29279;50.858;4.392;2022-12-07T09:14:55;15.95;;;7.03;;
43678;SDS011;29279;50.858;4.392;2022-12-07T09:17:21;21.27;;;7.10;;
43678;SDS011;29279;50.858;4.392;2022-12-07T09:19:47;17.40;;;6.78;;
43678;SDS011;29279;50.858;4.392;2022-12-07T09:22:13;18.30;;;7.20;;
43678;SDS011;29279;50.858;4.392;2022-12-07T09:24:38;24.02;;;7.43;;
43678;SDS011;29279;50.858;4.392;2022-12-07T09:27:05;14.25;;;6.53;;
43678;SDS011;29279;50.858;4.392;2022-12-07T09:29:30;14.23;;;7.85;;
43678;SDS011;29279;50.858;4.392;2022-12-07T09:31:56;21.20;;;7.95;;
43678;SDS011;29279;50.858;4.392;2022-12-07T09:34:22;24.02;;;7.88;;
43678;SDS011;29279;50.858;4.392;2022-12-07T09:36:48;21.00;;;8.27;;
43678;SDS011;29279;50.858;4.392;2022-12-07T09:39:13;28.67;;;7.53;;
43678;SDS011;29279;50.858;4.392;2022-12-07T09:41:40;22.50;;;8.05;;
43678;SDS011;29279;50.858;4.392;2022-12-07T09:44:12;13.77;;;7.40;;
43678;SDS011;29279;50.858;4.392;2022-12-07T09:46:42;23.55;;;8.20;;
43678;SDS011;29279;50.858;4.392;2022-12-07T09:49:12;27.48;;;8.82;;
43678;SDS011;29279;50.858;4.392;2022-12-07T09:51:44;20.67;;;9.20;;
43678;SDS011;29279;50.858;4.392;2022-12-07T09:54:14;23.80;;;9.25;;
43678;SDS011;29279;50.858;4.392;2022-12-07T09:56:44;35.75;;;10.07;;
43678;SDS011;29279;50.858;4.392;2022-12-07T09:59:12;31.17;;;10.85;;
43678;SDS011;29279;50.858;4.392;2022-12-07T10:01:43;23.58;;;9.18;;
43678;SDS011;29279;50.858;4.392;2022-12-07T10:04:12;17.83;;;8.02;;
43678;SDS011;29279;50.858;4.392;2022-12-07T10:06:41;18.42;;;8.38;;
43678;SDS011;29279;50.858;4.392;2022-12-07T10:09:18;18.50;;;8.55;;
43678;SDS011;29279;50.858;4.392;2022-12-07T10:11:57;25.58;;;9.30;;
43678;SDS011;29279;50.858;4.392;2022-12-07T10:14:31;23.98;;;9.27;;
43678;SDS011;29279;50.858;4.392;2022-12-07T10:16:58;22.98;;;8.27;;
43678;SDS011;29279;50.858;4.392;2022-12-07T10:19:32;18.13;;;9.13;;
43678;SDS011;29279;50.858;4.392;2022-12-07T10:21:59;37.13;;;9.55;;
43678;SDS011;29279;50.858;4.392;2022-12-07T10:24:30;20.50;;;9.00;;
43678;SDS011;29279;50.858;4.392;2022-12-07T10:26:56;24.67;;;8.93;;
43678;SDS011;29279;50.858;4.392;2022-12-07T10:29:24;17.50;;;9.45;;
43678;SDS011;29279;50.858;4.392;2022-12-07T10:32:04;24.02;;;8.55;;
43678;SDS011;29279;50.858;4.392;2022-12-07T10:34:50;17.77;;;8.55;;
43678;SDS011;29279;50.858;4.392;2022-12-07T10:37:18;18.02;;;9.32;;
43678;SDS011;29279;50.858;4.392;2022-12-07T10:39:46;22.17;;;8.90;;
43678;SDS011;29279;50.858;4.392;2022-12-07T10:42:18;18.50;;;8.50;;
43678;SDS011;29279;50.858;4.392;2022-12-07T10:44:45;20.33;;;7.90;;
43678;SDS011;29279;50.858;4.392;2022-12-07T10:47:21;18.95;;;7.78;;
43678;SDS011;29279;50.858;4.392;2022-12-07T11:10:05;17.60;;;7.45;;
43678;SDS011;29279;50.858;4.392;2022-12-07T11:12:50;19.00;;;7.30;;
43678;SDS011;29279;50.858;4.392;2022-12-07T11:18:22;14.52;;;5.88;;
43678;SDS011;29279;50.858;4.392;2022-12-07T11:21:13;17.92;;;6.25;;
43678;SDS011;29279;50.858;4.392;2022-12-07T11:24:17;13.73;;;5.75;;
43678;SDS011;29279;50.858;4.392;2022-12-07T11:27:02;17.27;;;6.45;;
43678;SDS011;29279;50.858;4.392;2022-12-07T11:41:05;13.70;;;5.28;;
43678;SDS011;29279;50.858;4.392;2022-12-07T11:44:01;13.05;;;4.78;;
43678;SDS011;29279;50.858;4.392;2022-12-07T11:46:47;19.25;;;6.03;;
43678;SDS011;29279;50.858;4.392;2022-12-07T11:52:04;12.90;;;4.30;;
43678;SDS011;29279;50.858;4.392;2022-12-07T11:54:35;16.95;;;4.80;;
43678;SDS011;29279;50.858;4.392;2022-12-07T11:57:10;18.17;;;4.90;;
43678;SDS011;29279;50.858;4.392;2022-12-07T11:59:45;19.00;;;4.70;;
43678;SDS011;29279;50.858;4.392;2022-12-07T12:02:26;12.25;;;4.65;;
43678;SDS011;29279;50.858;4.392;2022-12-07T12:07:43;15.43;;;3.60;;
43678;SDS011;29279;50.858;4.392;2022-12-07T12:18:21;20.35;;;3.63;;
43678;SDS011;29279;50.858;4.392;2022-12-07T12:20:57;10.55;;;3.45;;
43678;SDS011;29279;50.858;4.392;2022-12-07T12:25:59;11.30;;;3.90;;
43678;SDS011;29279;50.858;4.392;2022-12-07T12:28:29;7.72;;;3.22;;
43678;SDS011;29279;50.858;4.392;2022-12-07T12:33:52;8.50;;;2.30;;
43678;SDS011;29279;50.858;4.392;2022-12-07T12:36:30;10.88;;;2.70;;
43678;SDS011;29279;50.858;4.392;2022-12-07T12:39:11;8.57;;;2.50;;
43678;SDS011;29279;50.858;4.392;2022-12-07T12:46:52;9.55;;;2.65;;
43678;SDS011;29279;50.858;4.392;2022-12-07T12:51:51;12.55;;;2.55;;
43678;SDS011;29279;50.858;4.392;2022-12-07T12:54:21;8.32;;;2.22;;
43678;SDS011;29279;50.858;4.392;2022-12-07T12:59:30;8.75;;;2.30;;
43678;SDS011;29279;50.858;4.392;2022-12-07T13:02:37;8.15;;;2.65;;
43678;SDS011;29279;50.858;4.392;2022-12-07T13:15:54;13.23;;;3.75;;
43678;SDS011;29279;50.858;4.392;2022-12-07T13:18:40;11.52;;;2.53;;
43678;SDS011;29279;50.858;4.392;2022-12-07T13:28:51;7.28;;;2.22;;
43678;SDS011;29279;50.858;4.392;2022-12-07T13:32:17;9.73;;;2.13;;
43678;SDS011;29279;50.858;4.392;2022-12-07T13:34:30;8.50;;;2.50;;
43678;SDS011;29279;50.858;4.392;2022-12-07T13:37:23;11.88;;;2.70;;
43678;SDS011;29279;50.858;4.392;2022-12-07T13:39:56;9.23;;;2.60;;
43678;SDS011;29279;50.858;4.392;2022-12-07T13:42:27;11.75;;;2.90;;
43678;SDS011;29279;50.858;4.392;2022-12-07T13:44:54;16.40;;;3.03;;
43678;SDS011;29279;50.858;4.392;2022-12-07T13:50:22;11.07;;;2.90;;
43678;SDS011;29279;50.858;4.392;2022-12-07T13:52:54;13.18;;;2.78;;
43678;SDS011;29279;50.858;4.392;2022-12-07T13:55:21;10.68;;;3.28;;
43678;SDS011;29279;50.858;4.392;2022-12-07T13:57:50;8.80;;;2.78;;
43678;SDS011;29279;50.858;4.392;2022-12-07T14:00:24;9.13;;;3.92;;
43678;SDS011;29279;50.858;4.392;2022-12-07T14:02:56;14.60;;;3.50;;
43678;SDS011;29279;50.858;4.392;2022-12-07T14:05:32;10.90;;;2.87;;
43678;SDS011;29279;50.858;4.392;2022-12-07T14:08:00;10.85;;;2.88;;
43678;SDS011;29279;50.858;4.392;2022-12-07T14:13:01;8.45;;;2.72;;
43678;SDS011;29279;50.858;4.392;2022-12-07T14:15:29;12.77;;;2.97;;
43678;SDS011;29279;50.858;4.392;2022-12-07T14:17:57;10.52;;;2.30;;
43678;SDS011;29279;50.858;4.392;2022-12-07T14:20:38;8.70;;;2.78;;
43678;SDS011;29279;50.858;4.392;2022-12-07T14:23:20;7.40;;;2.35;;
43678;SDS011;29279;50.858;4.392;2022-12-07T14:25:50;12.00;;;2.60;;
43678;SDS011;29279;50.858;4.392;2022-12-07T14:28:28;6.28;;;2.17;;
43678;SDS011;29279;50.858;4.392;2022-12-07T14:30:56;9.35;;;2.50;;
43678;SDS011;29279;50.858;4.392;2022-12-07T14:33:23;8.68;;;3.08;;
43678;SDS011;29279;50.858;4.392;2022-12-07T14:35:49;10.25;;;2.95;;
43678;SDS011;29279;50.858;4.392;2022-12-07T14:38:19;11.30;;;3.85;;
43678;SDS011;29279;50.858;4.392;2022-12-07T14:40:45;9.02;;;3.00;;
43678;SDS011;29279;50.858;4.392;2022-12-07T14:43:12;10.63;;;3.08;;
43678;SDS011;29279;50.858;4.392;2022-12-07T14:45:41;6.85;;;2.45;;
43678;SDS011;29279;50.858;4.392;2022-12-07T14:48:07;7.25;;;2.25;;
43678;SDS011;29279;50.858;4.392;2022-12-07T14:50:39;6.38;;;1.77;;
43678;SDS011;29279;50.858;4.392;2022-12-07T14:53:13;13.77;;;2.88;;
43678;SDS011;29279;50.858;4.392;2022-12-07T14:55:40;3.55;;;1.70;;
43678;SDS011;29279;50.858;4.392;2022-12-07T14:58:06;9.25;;;2.28;;
43678;SDS011;29279;50.858;4.392;2022-12-07T15:00:38;6.13;;;1.77;;
43678;SDS011;29279;50.858;4.392;2022-12-07T15:03:04;4.75;;;2.15;;
43678;SDS011;29279;50.858;4.392;2022-12-07T15:05:29;14.63;;;2.55;;
43678;SDS011;29279;50.858;4.392;2022-12-07T15:07:55;5.18;;;1.98;;
43678;SDS011;29279;50.858;4.392;2022-12-07T15:10:22;10.00;;;2.47;;
43678;SDS011;29279;50.858;4.392;2022-12-07T15:12:57;7.50;;;2.38;;
43678;SDS011;29279;50.858;4.392;2022-12-07T15:15:43;11.80;;;4.70;;
43678;SDS011;29279;50.858;4.392;2022-12-07T15:18:09;9.30;;;3.22;;
43678;SDS011;29279;50.858;4.392;2022-12-07T15:20:34;6.88;;;2.60;;
43678;SDS011;29279;50.858;4.392;2022-12-07T15:23:00;10.40;;;2.90;;
43678;SDS011;29279;50.858;4.392;2022-12-07T15:25:26;9.32;;;2.90;;
43678;SDS011;29279;50.858;4.392;2022-12-07T15:27:51;10.98;;;3.13;;
43678;SDS011;29279;50.858;4.392;2022-12-07T15:30:17;9.02;;;3.35;;
43678;SDS011;29279;50.858;4.392;2022-12-07T15:32:43;11.90;;;3.28;;
43678;SDS011;29279;50.858;4.392;2022-12-07T15:35:08;10.95;;;3.38;;
43678;SDS011;29279;50.858;4.392;2022-12-07T15:37:34;12.75;;;4.45;;
43678;SDS011;29279;50.858;4.392;2022-12-07T15:40:00;12.57;;;3.47;;
43678;SDS011;29279;50.858;4.392;2022-12-07T15:42:25;10.02;;;3.65;;
43678;SDS011;29279;50.858;4.392;2022-12-07T15:44:51;9.13;;;3.22;;
43678;SDS011;29279;50.858;4.392;2022-12-07T15:47:29;8.43;;;3.38;;
43678;SDS011;29279;50.858;4.392;2022-12-07T15:50:05;10.55;;;3.22;;
43678;SDS011;29279;50.858;4.392;2022-12-07T15:52:34;11.85;;;3.85;;
43678;SDS011;29279;50.858;4.392;2022-12-07T15:54:59;13.05;;;3.70;;
43678;SDS011;29279;50.858;4.392;2022-12-07T15:57:27;12.57;;;4.40;;
43678;SDS011;29279;50.858;4.392;2022-12-07T15:59:53;11.18;;;4.20;;
43678;SDS011;29279;50.858;4.392;2022-12-07T16:02:19;14.20;;;3.85;;
43678;SDS011;29279;50.858;4.392;2022-12-07T16:04:44;6.80;;;3.05;;
43678;SDS011;29279;50.858;4.392;2022-12-07T16:07:10;7.75;;;3.20;;
43678;SDS011;29279;50.858;4.392;2022-12-07T16:09:36;12.02;;;4.47;;
43678;SDS011;29279;50.858;4.392;2022-12-07T16:12:03;11.05;;;4.90;;
43678;SDS011;29279;50.858;4.392;2022-12-07T16:14:29;13.32;;;6.90;;
43678;SDS011;29279;50.858;4.392;2022-12-07T16:16:57;12.85;;;4.70;;
43678;SDS011;29279;50.858;4.392;2022-12-07T16:19:22;9.40;;;4.93;;
43678;SDS011;29279;50.858;4.392;2022-12-07T16:21:48;11.95;;;4.93;;
43678;SDS011;29279;50.858;4.392;2022-12-07T16:24:14;11.90;;;4.38;;
43678;SDS011;29279;50.858;4.392;2022-12-07T16:26:40;10.43;;;5.00;;
43678;SDS011;29279;50.858;4.392;2022-12-07T16:29:06;14.88;;;4.82;;
43678;SDS011;29279;50.858;4.392;2022-12-07T16:31:31;11.13;;;5.13;;
43678;SDS011;29279;50.858;4.392;2022-12-07T16:33:58;11.65;;;4.65;;
43678;SDS011;29279;50.858;4.392;2022-12-07T16:36:24;6.97;;;3.80;;
43678;SDS011;29279;50.858;4.392;2022-12-07T16:38:52;11.18;;;4.10;;
43678;SDS011;29279;50.858;4.392;2022-12-07T16:41:18;9.95;;;3.95;;
43678;SDS011;29279;50.858;4.392;2022-12-07T16:43:43;8.98;;;4.85;;
43678;SDS011;29279;50.858;4.392;2022-12-07T16:46:09;8.60;;;4.68;;
43678;SDS011;29279;50.858;4.392;2022-12-07T16:48:38;14.90;;;4.80;;